sensor_id;sensor_type;location;lat;lon;timestamp;temperature;humidity
15483;DHT22;7843;50.330;7.312;2022-12-10T00:02:08;-0.70;99.90
15483;DHT22;7843;50.330;7.312;2022-12-10T00:04:35;-0.70;99.90
15483;DHT22;7843;50.330;7.312;2022-12-10T00:07:02;-0.70;99.90
15483;DHT22;7843;50.330;7.312;2022-12-10T00:09:30;-0.70;99.90
15483;DHT22;7843;50.330;7.312;2022-12-10T00:11:56;-0.70;99.90
15483;DHT22;7843;50.330;7.312;2022-12-10T00:14:23;-0.60;99.90
15483;DHT22;7843;50.330;7.312;2022-12-10T00:16:50;-0.60;99.90
15483;DHT22;7843;50.330;7.312;2022-12-10T00:19:16;-0.60;99.90
15483;DHT22;7843;50.330;7.312;2022-12-10T00:21:44;-0.50;99.90
15483;DHT22;7843;50.330;7.312;2022-12-10T00:24:11;-0.40;99.90
15483;DHT22;7843;50.330;7.312;2022-12-10T00:26:39;-0.40;99.90
15483;DHT22;7843;50.330;7.312;2022-12-10T00:29:07;-0.30;99.90
15483;DHT22;7843;50.330;7.312;2022-12-10T00:31:36;-0.30;99.90
15483;DHT22;7843;50.330;7.312;2022-12-10T00:34:06;-0.20;99.90
15483;DHT22;7843;50.330;7.312;2022-12-10T00:36:45;-0.20;99.90
15483;DHT22;7843;50.330;7.312;2022-12-10T00:39:14;-0.10;99.90
15483;DHT22;7843;50.330;7.312;2022-12-10T00:41:42;-0.10;99.90
15483;DHT22;7843;50.330;7.312;2022-12-10T00:44:09;-0.10;99.90
15483;DHT22;7843;50.330;7.312;2022-12-10T00:46:35;-0.10;99.90
15483;DHT22;7843;50.330;7.312;2022-12-10T00:49:02;-0.10;99.90
15483;DHT22;7843;50.330;7.312;2022-12-10T00:51:29;0.00;99.90
15483;DHT22;7843;50.330;7.312;2022-12-10T00:53:57;-0.10;99.90
15483;DHT22;7843;50.330;7.312;2022-12-10T00:56:28;-0.10;99.90
15483;DHT22;7843;50.330;7.312;2022-12-10T00:58:56;-0.10;99.90
15483;DHT22;7843;50.330;7.312;2022-12-10T01:01:29;-0.10;99.90
15483;DHT22;7843;50.330;7.312;2022-12-10T01:04:00;-0.10;99.90
15483;DHT22;7843;50.330;7.312;2022-12-10T01:06:31;-0.10;99.90
15483;DHT22;7843;50.330;7.312;2022-12-10T01:09:00;-0.10;99.90
15483;DHT22;7843;50.330;7.312;2022-12-10T01:11:33;-0.10;99.90
15483;DHT22;7843;50.330;7.312;2022-12-10T01:14:00;-0.10;99.90
15483;DHT22;7843;50.330;7.312;2022-12-10T01:16:27;-0.10;99.90
15483;DHT22;7843;50.330;7.312;2022-12-10T01:18:58;0.00;99.90
15483;DHT22;7843;50.330;7.312;2022-12-10T01:21:26;0.00;99.90
15483;DHT22;7843;50.330;7.312;2022-12-10T01:23:54;0.00;99.90
15483;DHT22;7843;50.330;7.312;2022-12-10T01:26:23;0.10;99.90
15483;DHT22;7843;50.330;7.312;2022-12-10T01:28:51;0.10;99.90
15483;DHT22;7843;50.330;7.312;2022-12-10T01:31:21;0.10;99.90
15483;DHT22;7843;50.330;7.312;2022-12-10T01:33:48;0.10;99.90
15483;DHT22;7843;50.330;7.312;2022-12-10T01:36:18;0.10;99.90
15483;DHT22;7843;50.330;7.312;2022-12-10T01:38:46;0.10;99.90
15483;DHT22;7843;50.330;7.312;2022-12-10T01:41:22;0.10;99.90
15483;DHT22;7843;50.330;7.312;2022-12-10T01:46:19;0.10;99.90
15483;DHT22;7843;50.330;7.312;2022-12-10T01:48:46;0.20;99.90
15483;DHT22;7843;50.330;7.312;2022-12-10T01:51:13;0.20;99.90
15483;DHT22;7843;50.330;7.312;2022-12-10T01:53:41;0.20;99.90
15483;DHT22;7843;50.330;7.312;2022-12-10T01:56:11;0.20;99.90
15483;DHT22;7843;50.330;7.312;2022-12-10T01:58:39;0.20;99.90
15483;DHT22;7843;50.330;7.312;2022-12-10T02:01:22;0.20;99.90
15483;DHT22;7843;50.330;7.312;2022-12-10T02:17:37;0.30;99.90
15483;DHT22;7843;50.330;7.312;2022-12-10T02:20:15;0.30;99.90
15483;DHT22;7843;50.330;7.312;2022-12-10T02:22:49;0.30;99.90
15483;DHT22;7843;50.330;7.312;2022-12-10T02:25:20;0.30;99.90
15483;DHT22;7843;50.330;7.312;2022-12-10T02:28:04;0.30;99.90
15483;DHT22;7843;50.330;7.312;2022-12-10T02:30:32;0.30;99.90
15483;DHT22;7843;50.330;7.312;2022-12-10T02:33:02;0.30;99.90
15483;DHT22;7843;50.330;7.312;2022-12-10T02:35:33;0.30;99.90
15483;DHT22;7843;50.330;7.312;2022-12-10T02:38:15;0.30;99.90
15483;DHT22;7843;50.330;7.312;2022-12-10T02:40:46;0.30;99.90
15483;DHT22;7843;50.330;7.312;2022-12-10T02:43:15;0.30;99.90
15483;DHT22;7843;50.330;7.312;2022-12-10T02:45:43;0.30;99.90
15483;DHT22;7843;50.330;7.312;2022-12-10T02:48:11;0.30;99.90
15483;DHT22;7843;50.330;7.312;2022-12-10T02:50:38;0.30;99.90
15483;DHT22;7843;50.330;7.312;2022-12-10T02:53:05;0.30;99.90
15483;DHT22;7843;50.330;7.312;2022-12-10T02:58:56;0.30;99.90
15483;DHT22;7843;50.330;7.312;2022-12-10T03:01:42;0.30;99.90
15483;DHT22;7843;50.330;7.312;2022-12-10T03:04:35;0.30;99.90
15483;DHT22;7843;50.330;7.312;2022-12-10T03:07:10;0.30;99.90
15483;DHT22;7843;50.330;7.312;2022-12-10T03:09:52;0.30;99.90
15483;DHT22;7843;50.330;7.312;2022-12-10T03:12:30;0.30;99.90
15483;DHT22;7843;50.330;7.312;2022-12-10T03:15:04;0.30;99.90
15483;DHT22;7843;50.330;7.312;2022-12-10T03:17:31;0.30;99.90
15483;DHT22;7843;50.330;7.312;2022-12-10T03:20:00;0.30;99.90
15483;DHT22;7843;50.330;7.312;2022-12-10T03:22:28;0.30;99.90
15483;DHT22;7843;50.330;7.312;2022-12-10T03:24:56;0.20;99.90
15483;DHT22;7843;50.330;7.312;2022-12-10T03:27:25;0.20;99.90
15483;DHT22;7843;50.330;7.312;2022-12-10T03:29:56;0.30;99.90
15483;DHT22;7843;50.330;7.312;2022-12-10T03:32:27;0.30;99.90
15483;DHT22;7843;50.330;7.312;2022-12-10T03:34:56;0.30;99.90
15483;DHT22;7843;50.330;7.312;2022-12-10T03:37:25;0.20;99.90
15483;DHT22;7843;50.330;7.312;2022-12-10T03:39:53;0.20;99.90
15483;DHT22;7843;50.330;7.312;2022-12-10T03:42:20;0.30;99.90
15483;DHT22;7843;50.330;7.312;2022-12-10T03:44:50;0.20;99.90
15483;DHT22;7843;50.330;7.312;2022-12-10T03:47:18;0.20;99.90
15483;DHT22;7843;50.330;7.312;2022-12-10T03:49:45;0.20;99.90
15483;DHT22;7843;50.330;7.312;2022-12-10T03:52:12;0.20;99.90
15483;DHT22;7843;50.330;7.312;2022-12-10T03:54:39;0.10;99.90
15483;DHT22;7843;50.330;7.312;2022-12-10T03:57:05;0.20;99.90
15483;DHT22;7843;50.330;7.312;2022-12-10T03:59:32;0.20;99.90
15483;DHT22;7843;50.330;7.312;2022-12-10T04:01:59;0.10;99.90
15483;DHT22;7843;50.330;7.312;2022-12-10T04:04:25;0.10;99.90
15483;DHT22;7843;50.330;7.312;2022-12-10T04:06:52;0.10;99.90
15483;DHT22;7843;50.330;7.312;2022-12-10T04:09:19;0.10;99.90
15483;DHT22;7843;50.330;7.312;2022-12-10T04:11:46;0.10;99.90
15483;DHT22;7843;50.330;7.312;2022-12-10T04:14:13;0.10;99.90
15483;DHT22;7843;50.330;7.312;2022-12-10T04:16:59;0.00;99.90
15483;DHT22;7843;50.330;7.312;2022-12-10T04:19:26;0.00;99.90
15483;DHT22;7843;50.330;7.312;2022-12-10T04:21:52;0.00;99.90
15483;DHT22;7843;50.330;7.312;2022-12-10T04:24:38;0.10;99.90
15483;DHT22;7843;50.330;7.312;2022-12-10T04:27:31;0.00;99.90
15483;DHT22;7843;50.330;7.312;2022-12-10T04:29:59;0.00;99.90
15483;DHT22;7843;50.330;7.312;2022-12-10T04:32:28;0.00;99.90
15483;DHT22;7843;50.330;7.312;2022-12-10T04:34:55;-0.10;99.90
15483;DHT22;7843;50.330;7.312;2022-12-10T04:37:22;0.00;99.90
15483;DHT22;7843;50.330;7.312;2022-12-10T04:39:50;0.00;99.90
15483;DHT22;7843;50.330;7.312;2022-12-10T04:42:17;0.00;99.90
15483;DHT22;7843;50.330;7.312;2022-12-10T04:44:44;0.00;99.90
15483;DHT22;7843;50.330;7.312;2022-12-10T04:47:11;-0.10;99.90
15483;DHT22;7843;50.330;7.312;2022-12-10T04:49:38;-0.10;99.90
15483;DHT22;7843;50.330;7.312;2022-12-10T04:52:06;0.00;99.90
15483;DHT22;7843;50.330;7.312;2022-12-10T04:54:33;0.00;99.90
15483;DHT22;7843;50.330;7.312;2022-12-10T04:57:04;0.00;99.90
15483;DHT22;7843;50.330;7.312;2022-12-10T04:59:30;0.00;99.90
15483;DHT22;7843;50.330;7.312;2022-12-10T05:01:57;0.00;99.90
15483;DHT22;7843;50.330;7.312;2022-12-10T05:04:24;0.00;99.90
15483;DHT22;7843;50.330;7.312;2022-12-10T05:06:51;0.00;99.90
15483;DHT22;7843;50.330;7.312;2022-12-10T05:09:17;0.00;99.90
15483;DHT22;7843;50.330;7.312;2022-12-10T05:11:44;0.00;99.90
15483;DHT22;7843;50.330;7.312;2022-12-10T05:14:12;0.00;99.90
15483;DHT22;7843;50.330;7.312;2022-12-10T05:16:40;0.00;99.90
15483;DHT22;7843;50.330;7.312;2022-12-10T05:19:09;0.00;99.90
15483;DHT22;7843;50.330;7.312;2022-12-10T05:21:36;0.10;99.90
15483;DHT22;7843;50.330;7.312;2022-12-10T05:24:21;0.10;99.90
15483;DHT22;7843;50.330;7.312;2022-12-10T05:26:48;0.10;99.90
15483;DHT22;7843;50.330;7.312;2022-12-10T05:29:18;0.10;99.90
15483;DHT22;7843;50.330;7.312;2022-12-10T05:31:45;0.10;99.90
15483;DHT22;7843;50.330;7.312;2022-12-10T05:34:11;0.10;99.90
15483;DHT22;7843;50.330;7.312;2022-12-10T05:36:38;0.10;99.90
15483;DHT22;7843;50.330;7.312;2022-12-10T05:39:05;0.10;99.90
15483;DHT22;7843;50.330;7.312;2022-12-10T05:41:35;0.10;99.90
15483;DHT22;7843;50.330;7.312;2022-12-10T05:44:03;0.10;99.90
15483;DHT22;7843;50.330;7.312;2022-12-10T05:46:32;0.10;99.90
15483;DHT22;7843;50.330;7.312;2022-12-10T05:49:01;0.10;99.90
15483;DHT22;7843;50.330;7.312;2022-12-10T05:51:30;0.10;99.90
15483;DHT22;7843;50.330;7.312;2022-12-10T05:53:58;0.10;99.90
15483;DHT22;7843;50.330;7.312;2022-12-10T05:56:25;0.10;99.90
15483;DHT22;7843;50.330;7.312;2022-12-10T05:58:56;0.10;99.90
15483;DHT22;7843;50.330;7.312;2022-12-10T06:01:26;0.10;99.90
15483;DHT22;7843;50.330;7.312;2022-12-10T06:03:54;0.10;99.90
15483;DHT22;7843;50.330;7.312;2022-12-10T06:06:25;0.10;99.90
15483;DHT22;7843;50.330;7.312;2022-12-10T06:08:52;0.10;99.90
15483;DHT22;7843;50.330;7.312;2022-12-10T06:11:19;0.20;99.90
15483;DHT22;7843;50.330;7.312;2022-12-10T06:13:46;0.20;99.90
15483;DHT22;7843;50.330;7.312;2022-12-10T06:16:16;0.20;99.90
15483;DHT22;7843;50.330;7.312;2022-12-10T06:18:43;0.10;99.90
15483;DHT22;7843;50.330;7.312;2022-12-10T06:21:13;0.10;99.90
15483;DHT22;7843;50.330;7.312;2022-12-10T06:23:40;0.10;99.90
15483;DHT22;7843;50.330;7.312;2022-12-10T06:26:14;0.10;99.90
15483;DHT22;7843;50.330;7.312;2022-12-10T06:28:41;0.10;99.90
15483;DHT22;7843;50.330;7.312;2022-12-10T06:31:10;0.10;99.90
15483;DHT22;7843;50.330;7.312;2022-12-10T06:33:36;0.10;99.90
15483;DHT22;7843;50.330;7.312;2022-12-10T06:36:05;0.10;99.90
15483;DHT22;7843;50.330;7.312;2022-12-10T06:38:33;0.00;99.90
15483;DHT22;7843;50.330;7.312;2022-12-10T06:41:04;0.00;99.90
15483;DHT22;7843;50.330;7.312;2022-12-10T06:43:31;0.00;99.90
15483;DHT22;7843;50.330;7.312;2022-12-10T06:45:58;-0.10;99.90
15483;DHT22;7843;50.330;7.312;2022-12-10T06:48:25;-0.10;99.90
15483;DHT22;7843;50.330;7.312;2022-12-10T06:50:51;-0.10;99.90
15483;DHT22;7843;50.330;7.312;2022-12-10T06:53:18;-0.10;99.90
15483;DHT22;7843;50.330;7.312;2022-12-10T06:55:45;-0.10;99.90
15483;DHT22;7843;50.330;7.312;2022-12-10T06:58:11;0.00;99.90
15483;DHT22;7843;50.330;7.312;2022-12-10T07:00:38;0.00;99.90
15483;DHT22;7843;50.330;7.312;2022-12-10T07:03:05;0.00;99.90
15483;DHT22;7843;50.330;7.312;2022-12-10T07:05:31;0.00;99.90
15483;DHT22;7843;50.330;7.312;2022-12-10T07:07:58;0.00;99.90
15483;DHT22;7843;50.330;7.312;2022-12-10T07:10:25;0.00;99.90
15483;DHT22;7843;50.330;7.312;2022-12-10T07:12:51;0.00;99.90
15483;DHT22;7843;50.330;7.312;2022-12-10T07:15:18;0.00;99.90
15483;DHT22;7843;50.330;7.312;2022-12-10T07:17:45;0.00;99.90
15483;DHT22;7843;50.330;7.312;2022-12-10T07:20:11;0.00;99.90
15483;DHT22;7843;50.330;7.312;2022-12-10T07:22:38;-0.10;99.90
15483;DHT22;7843;50.330;7.312;2022-12-10T07:25:06;-0.10;99.90
15483;DHT22;7843;50.330;7.312;2022-12-10T07:27:32;-0.10;99.90
15483;DHT22;7843;50.330;7.312;2022-12-10T07:29:59;-0.10;99.90
15483;DHT22;7843;50.330;7.312;2022-12-10T07:32:29;-0.10;99.90
15483;DHT22;7843;50.330;7.312;2022-12-10T07:34:55;-0.10;99.90
15483;DHT22;7843;50.330;7.312;2022-12-10T07:37:22;0.00;99.90
15483;DHT22;7843;50.330;7.312;2022-12-10T07:39:49;-0.10;99.90
15483;DHT22;7843;50.330;7.312;2022-12-10T07:42:16;0.00;99.90
15483;DHT22;7843;50.330;7.312;2022-12-10T07:44:42;0.00;99.90
15483;DHT22;7843;50.330;7.312;2022-12-10T07:47:13;0.00;99.90
15483;DHT22;7843;50.330;7.312;2022-12-10T07:49:39;0.00;99.90
15483;DHT22;7843;50.330;7.312;2022-12-10T07:52:07;0.00;99.90
15483;DHT22;7843;50.330;7.312;2022-12-10T07:54:34;0.00;99.90
15483;DHT22;7843;50.330;7.312;2022-12-10T07:57:01;0.00;99.90
15483;DHT22;7843;50.330;7.312;2022-12-10T07:59:27;0.00;99.90
15483;DHT22;7843;50.330;7.312;2022-12-10T08:01:54;0.10;99.90
15483;DHT22;7843;50.330;7.312;2022-12-10T08:04:21;0.10;99.90
15483;DHT22;7843;50.330;7.312;2022-12-10T08:06:48;0.10;99.90
15483;DHT22;7843;50.330;7.312;2022-12-10T08:09:14;0.10;99.90
15483;DHT22;7843;50.330;7.312;2022-12-10T08:11:41;0.10;99.90
15483;DHT22;7843;50.330;7.312;2022-12-10T08:14:08;0.10;99.90
15483;DHT22;7843;50.330;7.312;2022-12-10T08:16:34;0.20;99.90
15483;DHT22;7843;50.330;7.312;2022-12-10T08:19:02;0.20;99.90
15483;DHT22;7843;50.330;7.312;2022-12-10T08:21:31;0.30;99.90
15483;DHT22;7843;50.330;7.312;2022-12-10T08:23:58;0.30;99.90
15483;DHT22;7843;50.330;7.312;2022-12-10T08:26:28;0.30;99.90
15483;DHT22;7843;50.330;7.312;2022-12-10T08:28:56;0.30;99.90
15483;DHT22;7843;50.330;7.312;2022-12-10T08:31:24;0.40;99.90
15483;DHT22;7843;50.330;7.312;2022-12-10T08:33:51;0.40;99.90
15483;DHT22;7843;50.330;7.312;2022-12-10T08:36:19;0.40;99.90
15483;DHT22;7843;50.330;7.312;2022-12-10T08:38:46;0.40;99.90
15483;DHT22;7843;50.330;7.312;2022-12-10T08:41:21;0.40;99.90
15483;DHT22;7843;50.330;7.312;2022-12-10T08:43:48;0.50;99.90
15483;DHT22;7843;50.330;7.312;2022-12-10T08:46:15;0.50;99.90
15483;DHT22;7843;50.330;7.312;2022-12-10T08:48:42;0.50;99.90
15483;DHT22;7843;50.330;7.312;2022-12-10T08:51:10;0.50;99.90
15483;DHT22;7843;50.330;7.312;2022-12-10T08:53:38;0.60;99.90
15483;DHT22;7843;50.330;7.312;2022-12-10T08:56:04;0.60;99.90
15483;DHT22;7843;50.330;7.312;2022-12-10T08:58:31;0.60;99.90
15483;DHT22;7843;50.330;7.312;2022-12-10T09:00:58;0.60;99.90
15483;DHT22;7843;50.330;7.312;2022-12-10T09:03:25;0.60;99.90
15483;DHT22;7843;50.330;7.312;2022-12-10T09:05:52;0.60;99.90
15483;DHT22;7843;50.330;7.312;2022-12-10T09:08:19;0.70;99.90
15483;DHT22;7843;50.330;7.312;2022-12-10T09:10:46;0.70;99.90
15483;DHT22;7843;50.330;7.312;2022-12-10T09:13:12;0.80;99.90
15483;DHT22;7843;50.330;7.312;2022-12-10T09:15:39;0.80;99.50
15483;DHT22;7843;50.330;7.312;2022-12-10T09:18:06;0.70;99.40
15483;DHT22;7843;50.330;7.312;2022-12-10T09:20:33;0.70;99.90
15483;DHT22;7843;50.330;7.312;2022-12-10T09:22:59;0.70;99.30
15483;DHT22;7843;50.330;7.312;2022-12-10T09:25:26;0.70;99.30
15483;DHT22;7843;50.330;7.312;2022-12-10T09:27:53;0.70;99.00
15483;DHT22;7843;50.330;7.312;2022-12-10T09:30:19;0.70;98.60
15483;DHT22;7843;50.330;7.312;2022-12-10T09:32:46;0.70;99.00
15483;DHT22;7843;50.330;7.312;2022-12-10T09:35:13;0.60;98.50
15483;DHT22;7843;50.330;7.312;2022-12-10T09:37:39;0.60;98.50
15483;DHT22;7843;50.330;7.312;2022-12-10T09:40:06;0.70;99.00
15483;DHT22;7843;50.330;7.312;2022-12-10T09:43:10;0.80;98.30
15483;DHT22;7843;50.330;7.312;2022-12-10T09:51:12;0.80;98.00
15483;DHT22;7843;50.330;7.312;2022-12-10T09:53:40;0.80;98.00
15483;DHT22;7843;50.330;7.312;2022-12-10T09:56:19;0.90;98.40
15483;DHT22;7843;50.330;7.312;2022-12-10T09:58:48;0.90;98.10
15483;DHT22;7843;50.330;7.312;2022-12-10T10:01:16;0.90;97.60
15483;DHT22;7843;50.330;7.312;2022-12-10T10:03:44;1.00;98.10
15483;DHT22;7843;50.330;7.312;2022-12-10T10:06:15;0.90;97.80
15483;DHT22;7843;50.330;7.312;2022-12-10T10:08:55;0.90;97.60
15483;DHT22;7843;50.330;7.312;2022-12-10T10:11:25;0.80;97.60
15483;DHT22;7843;50.330;7.312;2022-12-10T10:14:04;0.90;97.80
15483;DHT22;7843;50.330;7.312;2022-12-10T10:16:35;0.90;98.10
15483;DHT22;7843;50.330;7.312;2022-12-10T10:19:14;1.00;97.60
15483;DHT22;7843;50.330;7.312;2022-12-10T10:21:43;1.00;97.40
15483;DHT22;7843;50.330;7.312;2022-12-10T10:24:19;1.00;97.80
15483;DHT22;7843;50.330;7.312;2022-12-10T10:26:47;1.10;97.40
15483;DHT22;7843;50.330;7.312;2022-12-10T10:29:17;1.00;96.90
15483;DHT22;7843;50.330;7.312;2022-12-10T10:31:45;1.00;96.90
15483;DHT22;7843;50.330;7.312;2022-12-10T10:34:20;1.00;97.10
15483;DHT22;7843;50.330;7.312;2022-12-10T10:36:56;1.00;97.40
15483;DHT22;7843;50.330;7.312;2022-12-10T10:39:29;1.10;96.90
15483;DHT22;7843;50.330;7.312;2022-12-10T10:41:58;1.00;96.40
15483;DHT22;7843;50.330;7.312;2022-12-10T10:44:28;0.90;96.10
15483;DHT22;7843;50.330;7.312;2022-12-10T10:47:00;1.00;96.20
15483;DHT22;7843;50.330;7.312;2022-12-10T10:49:31;0.90;96.30
15483;DHT22;7843;50.330;7.312;2022-12-10T10:52:00;0.90;95.70
15483;DHT22;7843;50.330;7.312;2022-12-10T10:57:13;0.90;95.80
15483;DHT22;7843;50.330;7.312;2022-12-10T10:59:41;1.00;96.10
15483;DHT22;7843;50.330;7.312;2022-12-10T11:02:32;1.10;96.10
15483;DHT22;7843;50.330;7.312;2022-12-10T11:05:05;1.10;96.20
15483;DHT22;7843;50.330;7.312;2022-12-10T11:07:35;1.20;95.80
15483;DHT22;7843;50.330;7.312;2022-12-10T11:10:15;1.20;95.10
15483;DHT22;7843;50.330;7.312;2022-12-10T11:17:52;1.20;95.60
15483;DHT22;7843;50.330;7.312;2022-12-10T11:20:31;1.20;95.60
15483;DHT22;7843;50.330;7.312;2022-12-10T11:23:09;1.20;95.30
15483;DHT22;7843;50.330;7.312;2022-12-10T11:26:05;1.10;95.00
15483;DHT22;7843;50.330;7.312;2022-12-10T11:50:55;1.60;94.80
15483;DHT22;7843;50.330;7.312;2022-12-10T11:56:26;1.60;95.00
15483;DHT22;7843;50.330;7.312;2022-12-10T11:59:03;1.70;95.10
15483;DHT22;7843;50.330;7.312;2022-12-10T12:07:29;1.60;94.40
15483;DHT22;7843;50.330;7.312;2022-12-10T12:13:03;1.60;94.90
15483;DHT22;7843;50.330;7.312;2022-12-10T12:15:39;1.60;94.30
15483;DHT22;7843;50.330;7.312;2022-12-10T12:18:18;1.50;94.20
15483;DHT22;7843;50.330;7.312;2022-12-10T12:21:09;1.50;94.00
15483;DHT22;7843;50.330;7.312;2022-12-10T12:23:59;1.50;93.90
15483;DHT22;7843;50.330;7.312;2022-12-10T12:26:35;1.50;93.60
15483;DHT22;7843;50.330;7.312;2022-12-10T12:29:36;1.40;93.80
15483;DHT22;7843;50.330;7.312;2022-12-10T12:35:01;1.60;94.30
15483;DHT22;7843;50.330;7.312;2022-12-10T12:37:52;1.50;93.90
15483;DHT22;7843;50.330;7.312;2022-12-10T12:40:28;1.60;95.10
15483;DHT22;7843;50.330;7.312;2022-12-10T12:42:59;1.70;95.80
15483;DHT22;7843;50.330;7.312;2022-12-10T12:45:41;1.70;95.90
15483;DHT22;7843;50.330;7.312;2022-12-10T12:48:23;1.70;95.70
15483;DHT22;7843;50.330;7.312;2022-12-10T12:50:57;1.80;95.30
15483;DHT22;7843;50.330;7.312;2022-12-10T12:53:25;1.80;94.90
15483;DHT22;7843;50.330;7.312;2022-12-10T13:03:44;1.70;95.70
15483;DHT22;7843;50.330;7.312;2022-12-10T13:06:24;1.70;95.60
15483;DHT22;7843;50.330;7.312;2022-12-10T13:11:44;1.70;95.40
15483;DHT22;7843;50.330;7.312;2022-12-10T13:14:29;1.70;95.40
15483;DHT22;7843;50.330;7.312;2022-12-10T13:17:32;1.70;95.80
15483;DHT22;7843;50.330;7.312;2022-12-10T13:30:43;1.60;97.00
15483;DHT22;7843;50.330;7.312;2022-12-10T13:36:20;1.50;97.20
15483;DHT22;7843;50.330;7.312;2022-12-10T13:41:24;1.60;97.20
15483;DHT22;7843;50.330;7.312;2022-12-10T13:44:45;1.60;96.90
15483;DHT22;7843;50.330;7.312;2022-12-10T13:50:03;1.60;97.30
15483;DHT22;7843;50.330;7.312;2022-12-10T13:52:38;1.60;97.90
15483;DHT22;7843;50.330;7.312;2022-12-10T13:58:23;1.60;97.50
15483;DHT22;7843;50.330;7.312;2022-12-10T14:06:18;1.50;97.50
15483;DHT22;7843;50.330;7.312;2022-12-10T14:09:10;1.50;97.50
15483;DHT22;7843;50.330;7.312;2022-12-10T14:11:43;1.40;97.80
15483;DHT22;7843;50.330;7.312;2022-12-10T14:14:19;1.40;98.50
15483;DHT22;7843;50.330;7.312;2022-12-10T14:16:48;1.40;97.90
15483;DHT22;7843;50.330;7.312;2022-12-10T14:19:16;1.30;98.20
15483;DHT22;7843;50.330;7.312;2022-12-10T14:21:45;1.20;98.30
15483;DHT22;7843;50.330;7.312;2022-12-10T14:24:28;1.20;98.50
15483;DHT22;7843;50.330;7.312;2022-12-10T14:27:19;1.20;98.60
15483;DHT22;7843;50.330;7.312;2022-12-10T14:29:49;1.20;98.70
15483;DHT22;7843;50.330;7.312;2022-12-10T14:32:27;1.10;99.10
15483;DHT22;7843;50.330;7.312;2022-12-10T14:34:56;1.00;99.20
15483;DHT22;7843;50.330;7.312;2022-12-10T14:37:30;0.90;99.30
15483;DHT22;7843;50.330;7.312;2022-12-10T14:39:57;0.80;99.50
15483;DHT22;7843;50.330;7.312;2022-12-10T14:42:24;0.70;99.60
15483;DHT22;7843;50.330;7.312;2022-12-10T14:44:59;0.70;99.80
15483;DHT22;7843;50.330;7.312;2022-12-10T14:47:27;0.60;99.90
15483;DHT22;7843;50.330;7.312;2022-12-10T14:50:00;0.60;99.90
15483;DHT22;7843;50.330;7.312;2022-12-10T14:52:40;0.50;99.90
15483;DHT22;7843;50.330;7.312;2022-12-10T14:55:15;0.50;99.90
15483;DHT22;7843;50.330;7.312;2022-12-10T14:58:01;0.40;99.90
15483;DHT22;7843;50.330;7.312;2022-12-10T15:00:28;0.30;99.90
15483;DHT22;7843;50.330;7.312;2022-12-10T15:03:00;0.20;99.90
15483;DHT22;7843;50.330;7.312;2022-12-10T15:05:32;0.10;99.90
15483;DHT22;7843;50.330;7.312;2022-12-10T15:08:05;0.00;99.90
15483;DHT22;7843;50.330;7.312;2022-12-10T15:10:42;0.00;99.90
15483;DHT22;7843;50.330;7.312;2022-12-10T15:13:45;-0.10;99.90
15483;DHT22;7843;50.330;7.312;2022-12-10T15:16:19;-0.20;99.90
15483;DHT22;7843;50.330;7.312;2022-12-10T15:18:46;-0.30;99.90
15483;DHT22;7843;50.330;7.312;2022-12-10T15:21:20;-0.30;99.90
15483;DHT22;7843;50.330;7.312;2022-12-10T15:23:47;-0.50;99.90
15483;DHT22;7843;50.330;7.312;2022-12-10T15:26:27;-0.50;99.90
15483;DHT22;7843;50.330;7.312;2022-12-10T15:31:57;-0.70;99.90
15483;DHT22;7843;50.330;7.312;2022-12-10T15:34:27;-0.80;99.90
15483;DHT22;7843;50.330;7.312;2022-12-10T15:36:56;-0.90;99.90
15483;DHT22;7843;50.330;7.312;2022-12-10T15:39:29;-1.00;99.90
15483;DHT22;7843;50.330;7.312;2022-12-10T15:42:00;-1.00;99.90
15483;DHT22;7843;50.330;7.312;2022-12-10T15:47:18;-1.10;99.90
15483;DHT22;7843;50.330;7.312;2022-12-10T15:49:47;-1.20;99.90
15483;DHT22;7843;50.330;7.312;2022-12-10T15:52:32;-1.20;99.90
15483;DHT22;7843;50.330;7.312;2022-12-10T15:54:59;-1.30;99.90
15483;DHT22;7843;50.330;7.312;2022-12-10T15:57:28;-1.40;99.90
15483;DHT22;7843;50.330;7.312;2022-12-10T15:59:57;-1.40;99.90
15483;DHT22;7843;50.330;7.312;2022-12-10T16:02:31;-1.40;99.90
15483;DHT22;7843;50.330;7.312;2022-12-10T16:05:01;-1.50;99.90
15483;DHT22;7843;50.330;7.312;2022-12-10T16:07:28;-1.60;99.90
15483;DHT22;7843;50.330;7.312;2022-12-10T16:09:55;-1.60;99.90
15483;DHT22;7843;50.330;7.312;2022-12-10T16:12:21;-1.60;99.90
15483;DHT22;7843;50.330;7.312;2022-12-10T16:14:50;-1.60;99.90
15483;DHT22;7843;50.330;7.312;2022-12-10T16:17:18;-1.70;99.90
15483;DHT22;7843;50.330;7.312;2022-12-10T16:19:45;-1.70;99.90
15483;DHT22;7843;50.330;7.312;2022-12-10T16:22:12;-1.70;99.90
15483;DHT22;7843;50.330;7.312;2022-12-10T16:24:38;-1.80;99.90
15483;DHT22;7843;50.330;7.312;2022-12-10T16:27:12;-1.80;99.90
15483;DHT22;7843;50.330;7.312;2022-12-10T16:29:39;-1.70;99.90
15483;DHT22;7843;50.330;7.312;2022-12-10T16:32:08;-1.70;99.90
15483;DHT22;7843;50.330;7.312;2022-12-10T16:34:35;-1.70;99.90
15483;DHT22;7843;50.330;7.312;2022-12-10T16:37:02;-1.60;99.90
15483;DHT22;7843;50.330;7.312;2022-12-10T16:39:29;-1.60;99.90
15483;DHT22;7843;50.330;7.312;2022-12-10T16:41:56;-1.60;99.90
15483;DHT22;7843;50.330;7.312;2022-12-10T16:44:23;-1.60;99.90
15483;DHT22;7843;50.330;7.312;2022-12-10T16:46:49;-1.60;99.90
15483;DHT22;7843;50.330;7.312;2022-12-10T16:49:16;-1.60;99.90
15483;DHT22;7843;50.330;7.312;2022-12-10T16:51:43;-1.60;99.90
15483;DHT22;7843;50.330;7.312;2022-12-10T16:54:10;-1.60;99.90
15483;DHT22;7843;50.330;7.312;2022-12-10T16:56:37;-1.60;99.90
15483;DHT22;7843;50.330;7.312;2022-12-10T16:59:04;-1.60;99.90
15483;DHT22;7843;50.330;7.312;2022-12-10T17:01:31;-1.60;99.90
15483;DHT22;7843;50.330;7.312;2022-12-10T17:03:58;-1.60;99.90
15483;DHT22;7843;50.330;7.312;2022-12-10T17:06:25;-1.60;99.90
15483;DHT22;7843;50.330;7.312;2022-12-10T17:08:52;-1.60;99.90
15483;DHT22;7843;50.330;7.312;2022-12-10T17:11:25;-1.70;99.90
15483;DHT22;7843;50.330;7.312;2022-12-10T17:16:40;-1.80;99.90
15483;DHT22;7843;50.330;7.312;2022-12-10T17:19:11;-1.90;99.90
15483;DHT22;7843;50.330;7.312;2022-12-10T17:21:38;-1.90;99.90
15483;DHT22;7843;50.330;7.312;2022-12-10T17:24:05;-2.00;99.90
15483;DHT22;7843;50.330;7.312;2022-12-10T17:26:36;-2.00;99.90
15483;DHT22;7843;50.330;7.312;2022-12-10T17:29:13;-2.10;99.90
15483;DHT22;7843;50.330;7.312;2022-12-10T17:31:40;-2.10;99.90
15483;DHT22;7843;50.330;7.312;2022-12-10T17:34:08;-2.20;99.90
15483;DHT22;7843;50.330;7.312;2022-12-10T17:36:35;-2.20;99.90
15483;DHT22;7843;50.330;7.312;2022-12-10T17:39:02;-2.20;99.90
15483;DHT22;7843;50.330;7.312;2022-12-10T17:41:28;-2.20;99.90
15483;DHT22;7843;50.330;7.312;2022-12-10T17:43:55;-2.20;99.90
15483;DHT22;7843;50.330;7.312;2022-12-10T17:46:24;-2.20;99.90
15483;DHT22;7843;50.330;7.312;2022-12-10T17:48:51;-2.30;99.90
15483;DHT22;7843;50.330;7.312;2022-12-10T17:51:18;-2.30;99.90
15483;DHT22;7843;50.330;7.312;2022-12-10T17:53:45;-2.30;99.90
15483;DHT22;7843;50.330;7.312;2022-12-10T17:56:18;-2.30;99.90
15483;DHT22;7843;50.330;7.312;2022-12-10T17:58:46;-2.20;99.90
15483;DHT22;7843;50.330;7.312;2022-12-10T18:01:13;-2.20;99.90
15483;DHT22;7843;50.330;7.312;2022-12-10T18:03:40;-2.20;99.90
15483;DHT22;7843;50.330;7.312;2022-12-10T18:08:40;-2.10;99.90
15483;DHT22;7843;50.330;7.312;2022-12-10T18:11:08;-2.10;99.90
15483;DHT22;7843;50.330;7.312;2022-12-10T18:13:35;-2.10;99.90
15483;DHT22;7843;50.330;7.312;2022-12-10T18:16:02;-2.10;99.90
15483;DHT22;7843;50.330;7.312;2022-12-10T18:18:30;-2.10;99.90